createdAt,value
2019-05-06T00:01:36.008Z,3.8
2019-05-06T00:06:36.238Z,3.8
2019-05-06T00:11:36.546Z,3.8
2019-05-06T00:16:35.774Z,3.9
2019-05-06T00:21:35.952Z,3.9
2019-05-06T00:26:36.199Z,4
2019-05-06T00:31:36.379Z,4
2019-05-06T00:36:36.773Z,4.2
2019-05-06T00:41:36.642Z,4.2
2019-05-06T00:46:36.028Z,4.3
2019-05-06T00:51:36.262Z,4.3
2019-05-06T00:56:36.425Z,4.3
2019-05-06T01:01:36.599Z,4.3
2019-05-06T01:06:35.854Z,4.3
2019-05-06T01:11:35.908Z,4.3
2019-05-06T01:16:36.151Z,4.3
2019-05-06T01:21:36.453Z,4.3
2019-05-06T01:26:36.604Z,4.2
2019-05-06T01:31:42.825Z,4.2
2019-05-06T01:36:36.665Z,4
2019-05-06T01:41:35.873Z,4
2019-05-06T01:46:36.022Z,3.9
2019-05-06T01:51:36.177Z,3.9
2019-05-06T01:56:36.507Z,3.8
2019-05-06T02:01:36.714Z,3.8
2019-05-06T02:06:36.113Z,3.7
2019-05-06T02:11:36.292Z,3.7
2019-05-06T02:16:36.606Z,3.6
2019-05-06T02:21:36.790Z,3.6
2019-05-06T02:26:36.213Z,3.5
2019-05-06T02:31:36.417Z,3.5
2019-05-06T02:36:35.853Z,3.4
2019-05-06T02:41:36.427Z,3.4
2019-05-06T02:46:36.720Z,3.3
2019-05-06T02:51:36.484Z,3.3
2019-05-06T02:56:35.852Z,3.3
2019-05-06T03:01:36.046Z,3.3
2019-05-06T03:06:36.259Z,3.2
2019-05-06T03:11:36.436Z,3.2
2019-05-06T03:16:36.813Z,3
2019-05-06T03:21:37.056Z,3
2019-05-06T03:26:36.538Z,2.9
2019-05-06T03:31:36.953Z,2.9
2019-05-06T03:36:40.713Z,2.8
2019-05-06T03:41:36.736Z,2.8
2019-05-06T03:46:35.998Z,2.7
2019-05-06T03:51:36.151Z,2.7
2019-05-06T03:56:36.415Z,2.6
2019-05-06T04:01:36.861Z,2.6
2019-05-06T04:06:36.287Z,2.4
2019-05-06T04:11:36.720Z,2.4
2019-05-06T04:16:36.846Z,2.4
2019-05-06T04:21:36.059Z,2.4
2019-05-06T04:26:36.380Z,2.3
2019-05-06T04:31:36.899Z,2.3
2019-05-06T04:36:36.224Z,2.3
2019-05-06T04:41:36.457Z,2.3
2019-05-06T04:46:36.587Z,2.2
2019-05-06T04:51:37.205Z,2.2
2019-05-06T04:56:36.413Z,2.2
2019-05-06T05:01:36.747Z,2.2
2019-05-06T05:06:37.106Z,2.3
2019-05-06T05:11:36.521Z,2.3
2019-05-06T05:16:36.866Z,2.3
2019-05-06T05:21:36.550Z,2.3
2019-05-06T05:26:36.847Z,2.6
2019-05-06T05:31:36.056Z,2.6
2019-05-06T05:36:36.684Z,2.8
2019-05-06T05:41:36.891Z,2.8
2019-05-06T05:46:36.102Z,3.3
2019-05-06T05:51:36.431Z,3.3
2019-05-06T05:56:37.100Z,3.9
2019-05-06T06:01:36.522Z,3.9
2019-05-06T06:06:36.771Z,4.5
2019-05-06T06:11:37.079Z,4.5
2019-05-06T06:16:36.916Z,5.1
2019-05-06T06:21:36.203Z,5.1
2019-05-06T06:26:36.218Z,5.8
2019-05-06T06:31:36.373Z,5.8
2019-05-06T06:36:37.218Z,6.3
2019-05-06T06:41:36.404Z,6.3
2019-05-06T06:46:36.662Z,6.8
2019-05-06T06:51:36.950Z,6.8
2019-05-06T06:56:36.270Z,7.3
2019-05-06T07:01:36.677Z,7.3
2019-05-06T07:06:37.058Z,7.6
2019-05-06T07:11:36.970Z,7.6
2019-05-06T07:16:36.247Z,7.8
2019-05-06T07:21:37.065Z,7.8
2019-05-06T07:26:36.615Z,7.8
2019-05-06T07:31:37.046Z,7.8
2019-05-06T07:36:36.490Z,8.2
2019-05-06T07:41:37.024Z,8.2
2019-05-06T07:46:36.264Z,8.8
2019-05-06T07:51:36.644Z,8.8
2019-05-06T07:56:36.921Z,9.8
2019-05-06T08:01:37.205Z,9.8
2019-05-06T08:06:36.451Z,9.5
2019-05-06T08:11:36.898Z,9.5
2019-05-06T08:16:37.059Z,9.9
2019-05-06T08:21:36.389Z,9.9
2019-05-06T08:26:36.633Z,10.8
2019-05-06T08:31:36.921Z,10.8
2019-05-06T08:36:37.325Z,10.7
2019-05-06T08:41:36.612Z,10.7
2019-05-06T08:46:36.749Z,10.1
2019-05-06T08:51:36.927Z,10.1
2019-05-06T08:56:36.563Z,9.4
2019-05-06T09:01:37.025Z,9.4
2019-05-06T09:06:36.489Z,9.1
2019-05-06T09:11:37.236Z,9.1
2019-05-06T09:16:36.651Z,9.3
2019-05-06T09:21:36.907Z,9.3
2019-05-06T09:26:37.181Z,9.5
2019-05-06T09:31:36.903Z,9.5
2019-05-06T09:36:43.721Z,9.5
2019-05-06T09:41:36.621Z,9.5
2019-05-06T09:46:36.716Z,10.3
2019-05-06T09:51:37.082Z,10.3
2019-05-06T09:56:37.311Z,10.8
2019-05-06T10:01:36.677Z,10.8
2019-05-06T10:06:37.091Z,10.3
2019-05-06T10:11:36.950Z,10.3
2019-05-06T10:16:37.002Z,9.5
2019-05-06T10:21:37.268Z,9.5
2019-05-06T10:26:36.763Z,9.6
2019-05-06T10:31:37.179Z,9.6
2019-05-06T10:36:36.765Z,9.4
2019-05-06T10:41:37.272Z,9.4
2019-05-06T10:46:37.209Z,9.1
2019-05-06T10:51:36.711Z,9.1
2019-05-06T10:56:49.791Z,9.8
2019-05-06T11:01:37.163Z,9.8
2019-05-06T11:06:36.599Z,9.9
2019-05-06T11:11:38.389Z,9.9
2019-05-06T11:16:37.225Z,10.7
2019-05-06T11:21:36.469Z,10.7
2019-05-06T11:26:36.857Z,10.8
2019-05-06T11:31:36.724Z,10.8
2019-05-06T11:36:37.647Z,11.2
2019-05-06T11:41:37.140Z,11.2
2019-05-06T11:46:37.060Z,11.4
2019-05-06T11:51:37.453Z,11.4
2019-05-06T11:56:47.955Z,11.2
2019-05-06T12:01:36.692Z,11.2
2019-05-06T12:06:36.984Z,10.8
2019-05-06T12:11:37.230Z,10.8
2019-05-06T12:16:36.874Z,10.7
2019-05-06T12:21:37.284Z,10.7
2019-05-06T12:26:36.593Z,11.2
2019-05-06T12:31:36.785Z,11.2
2019-05-06T12:36:37.231Z,10.8
2019-05-06T12:41:36.652Z,10.8
2019-05-06T12:46:36.959Z,10.4
2019-05-06T12:51:36.711Z,10.4
2019-05-06T12:56:37.384Z,10.2
2019-05-06T13:01:37.521Z,10.2
2019-05-06T13:06:36.851Z,10.7
2019-05-06T13:11:37.434Z,10.7
2019-05-06T13:16:37.519Z,10.8
2019-05-06T13:21:36.738Z,10.8
2019-05-06T13:26:37.407Z,11
2019-05-06T13:31:36.702Z,11
2019-05-06T13:36:37.131Z,11.3
2019-05-06T13:41:37.433Z,11.3
2019-05-06T13:46:36.656Z,11.2
2019-05-06T13:51:37.061Z,11.2
2019-05-06T13:56:37.268Z,11.8
2019-05-06T14:01:37.584Z,11.8
2019-05-06T14:06:36.915Z,11.4
2019-05-06T14:11:36.751Z,11.4
2019-05-06T14:16:36.979Z,10.9
2019-05-06T14:21:37.387Z,10.9
2019-05-06T14:26:36.660Z,11
2019-05-06T14:31:37.148Z,11
2019-05-06T14:36:36.931Z,11
2019-05-06T14:41:37.644Z,11
2019-05-06T14:46:37.033Z,11.1
2019-05-06T14:51:37.600Z,11.1
2019-05-06T14:56:36.793Z,10.9
2019-05-06T15:01:37.250Z,10.9
2019-05-06T15:06:37.657Z,10.7
2019-05-06T15:11:37.126Z,10.7
2019-05-06T15:16:37.003Z,10.7
2019-05-06T15:21:38.788Z,10.7
2019-05-06T15:26:37.429Z,10.7
2019-05-06T15:31:37.694Z,10.7
2019-05-06T15:36:36.898Z,10.6
2019-05-06T15:41:37.210Z,10.6
2019-05-06T15:46:37.480Z,10.4
2019-05-06T15:51:36.859Z,10.4
2019-05-06T15:56:37.109Z,10.5
2019-05-06T16:01:37.299Z,10.5
2019-05-06T16:06:37.626Z,10.5
2019-05-06T16:11:37.246Z,10.5
2019-05-06T16:16:37.154Z,10.3
2019-05-06T16:21:37.076Z,10.3
2019-05-06T16:26:37.278Z,10
2019-05-06T16:31:37.649Z,10
2019-05-06T16:36:36.914Z,9.7
2019-05-06T16:41:37.380Z,9.7
2019-05-06T16:46:37.680Z,9.3
2019-05-06T16:51:36.999Z,9.3
2019-05-06T16:56:37.223Z,9.2
2019-05-06T17:01:37.481Z,9.2
2019-05-06T17:06:37.991Z,9.1
2019-05-06T17:11:37.548Z,9.1
2019-05-06T17:16:37.021Z,8.9
2019-05-06T17:21:37.341Z,8.9
2019-05-06T17:26:37.597Z,8.9
2019-05-06T17:31:37.820Z,8.9
2019-05-06T17:36:37.273Z,8.7
2019-05-06T17:41:46.009Z,8.7
2019-05-06T17:46:37.717Z,8.6
2019-05-06T17:51:37.412Z,8.6
2019-05-06T17:56:37.680Z,8.4
2019-05-06T18:01:37.081Z,8.4
2019-05-06T18:06:37.419Z,8.3
2019-05-06T18:11:37.145Z,8.3
2019-05-06T18:16:37.659Z,8.2
2019-05-06T18:21:37.083Z,8.2
2019-05-06T18:26:37.285Z,8.1
2019-05-06T18:31:37.428Z,8.1
2019-05-06T18:36:37.243Z,7.9
2019-05-06T18:41:37.567Z,7.9
2019-05-06T18:46:37.807Z,7.8
2019-05-06T18:51:37.292Z,7.8
2019-05-06T18:56:37.732Z,7.7
2019-05-06T19:01:37.152Z,7.7
2019-05-06T19:06:37.550Z,7.6
2019-05-06T19:11:36.949Z,7.6
2019-05-06T19:16:48.873Z,7.5
2019-05-06T19:21:37.754Z,7.5
2019-05-06T19:26:37.668Z,7.3
2019-05-06T19:31:37.875Z,7.3
2019-05-06T19:36:37.354Z,7.2
2019-05-06T19:41:37.457Z,7.2
2019-05-06T19:46:37.570Z,7
2019-05-06T19:51:37.337Z,7
2019-05-06T19:56:37.576Z,6.8
2019-05-06T20:01:38.079Z,6.8
2019-05-06T20:06:37.708Z,6.7
2019-05-06T20:11:37.484Z,6.7
2019-05-06T20:16:37.500Z,6.4
2019-05-06T20:21:37.277Z,6.4
2019-05-06T20:26:37.508Z,6.3
2019-05-06T20:31:37.857Z,6.3
2019-05-06T20:36:37.453Z,6
2019-05-06T20:41:37.651Z,6
2019-05-06T20:46:37.910Z,5.8
2019-05-06T20:51:37.252Z,5.8
2019-05-06T20:56:37.509Z,5.7
2019-05-06T21:01:37.769Z,5.7
2019-05-06T21:06:37.603Z,5.5
2019-05-06T21:11:38.108Z,5.5
2019-05-06T21:16:37.344Z,5.5
2019-05-06T21:21:37.585Z,5.5
2019-05-06T21:26:38.010Z,5.4
2019-05-06T21:31:37.241Z,5.4
2019-05-06T21:36:37.883Z,5.4
2019-05-06T21:41:38.271Z,5.4
2019-05-06T21:46:37.977Z,5.3
2019-05-06T21:51:37.214Z,5.3
2019-05-06T21:56:37.428Z,5.2
2019-05-06T22:01:37.904Z,5.2
2019-05-06T22:06:37.313Z,5
2019-05-06T22:11:38.108Z,5
2019-05-06T22:16:38.102Z,4.8
2019-05-06T22:21:37.362Z,4.8
2019-05-06T22:26:37.678Z,4.4
2019-05-06T22:31:37.963Z,4.4
2019-05-06T22:36:37.889Z,4.2
2019-05-06T22:41:38.093Z,4.2
2019-05-06T22:46:37.452Z,3.9
2019-05-06T22:51:37.665Z,3.9
2019-05-06T22:56:37.789Z,3.7
2019-05-06T23:01:37.999Z,3.7
2019-05-06T23:06:37.344Z,3.5
2019-05-06T23:11:37.860Z,3.5
2019-05-06T23:16:38.133Z,3.3
2019-05-06T23:21:38.630Z,3.3
2019-05-06T23:26:37.832Z,3.2
2019-05-06T23:31:38.075Z,3.2
2019-05-06T23:36:37.396Z,3.1
2019-05-06T23:41:37.649Z,3.1
2019-05-06T23:46:37.864Z,2.9
2019-05-06T23:51:38.267Z,2.9
2019-05-06T23:56:37.551Z,2.8
